createdAt,value
2022-12-03T00:01:57.531Z,0.49
2022-12-03T00:05:59.562Z,0.46
2022-12-03T00:10:01.812Z,0.43
2022-12-03T00:14:04.061Z,0.42
2022-12-03T00:18:06.284Z,0.44
2022-12-03T00:22:08.418Z,0.50
2022-12-03T00:26:10.651Z,0.47
2022-12-03T00:30:13.567Z,0.48
2022-12-03T00:34:16.891Z,0.44
2022-12-03T00:38:19.069Z,0.44
2022-12-03T00:42:21.254Z,0.40
2022-12-03T00:46:24.702Z,0.40
2022-12-03T00:50:26.875Z,0.37
2022-12-03T00:54:32.105Z,0.42
2022-12-03T00:58:34.750Z,0.40
2022-12-03T01:02:37.013Z,0.33
2022-12-03T01:06:39.149Z,0.35
2022-12-03T01:10:41.330Z,0.39
2022-12-03T01:14:43.594Z,0.38
2022-12-03T01:18:46.269Z,0.34
2022-12-03T01:22:48.526Z,0.34
2022-12-03T01:26:50.638Z,0.33
2022-12-03T01:31:11.452Z,0.29
2022-12-03T01:35:13.636Z,0.26
2022-12-03T01:39:15.723Z,0.27
2022-12-03T01:43:17.851Z,0.26
2022-12-03T01:47:24.525Z,0.25
2022-12-03T01:51:26.788Z,0.23
2022-12-03T01:55:29.821Z,0.22
2022-12-03T01:59:38.643Z,0.24
2022-12-03T02:03:41.408Z,0.26
2022-12-03T02:07:43.969Z,0.31
2022-12-03T02:11:49.529Z,0.34
2022-12-03T02:15:51.706Z,0.32
2022-12-03T02:19:55.115Z,0.33
2022-12-03T02:24:29.088Z,0.33
2022-12-03T02:28:31.465Z,0.30
2022-12-03T02:32:33.806Z,0.31
2022-12-03T02:36:37.447Z,0.33
2022-12-03T02:40:40.944Z,0.35
2022-12-03T02:44:43.246Z,0.35
2022-12-03T02:48:45.401Z,0.34
2022-12-03T02:52:48.468Z,0.35
2022-12-03T02:56:50.635Z,0.36
2022-12-03T03:00:54.226Z,0.34
2022-12-03T03:04:57.215Z,0.36
2022-12-03T03:08:59.416Z,0.35
2022-12-03T03:13:03.478Z,0.35
2022-12-03T03:17:06.440Z,0.31
2022-12-03T03:21:08.741Z,0.22
2022-12-03T03:25:15.293Z,0.23
2022-12-03T03:29:17.786Z,0.20
2022-12-03T03:33:20.153Z,0.13
2022-12-03T03:37:23.790Z,0.11
2022-12-03T03:41:26.932Z,0.07
2022-12-03T03:45:29.912Z,0.09
2022-12-03T03:49:32.663Z,0.02
2022-12-03T03:53:38.622Z,0.00
2022-12-03T03:57:40.808Z,-0.01
2022-12-03T04:01:44.703Z,0.05
2022-12-03T04:05:47.608Z,0.05
2022-12-03T04:09:49.737Z,0.10
2022-12-03T04:13:51.848Z,0.13
2022-12-03T04:18:13.556Z,0.12
2022-12-03T04:22:35.010Z,0.09
2022-12-03T04:26:55.728Z,0.10
2022-12-03T04:30:57.937Z,0.08
2022-12-03T04:35:18.913Z,0.08
2022-12-03T04:39:21.079Z,0.08
2022-12-03T04:43:23.675Z,0.14
2022-12-03T04:47:25.742Z,0.13
2022-12-03T04:51:27.877Z,0.18
2022-12-03T04:55:30.005Z,0.15
2022-12-03T04:59:32.454Z,0.12
2022-12-03T05:03:34.575Z,0.05
2022-12-03T05:07:37.193Z,0.11
2022-12-03T05:11:40.307Z,0.11
2022-12-03T05:15:42.464Z,0.09
2022-12-03T05:20:03.076Z,0.11
2022-12-03T05:24:05.696Z,0.16
2022-12-03T05:28:07.889Z,0.12
2022-12-03T05:32:10.005Z,0.05
2022-12-03T05:36:12.147Z,0.03
2022-12-03T05:40:14.843Z,0.04
2022-12-03T05:44:20.468Z,0.02
2022-12-03T05:48:23.001Z,0.05
2022-12-03T05:52:25.205Z,0.13
2022-12-03T05:56:27.296Z,0.20
2022-12-03T06:00:32.165Z,0.28
2022-12-03T06:04:34.267Z,0.24
2022-12-03T06:08:36.481Z,0.32
2022-12-03T06:12:38.706Z,0.48
2022-12-03T06:16:40.841Z,0.63
2022-12-03T06:20:43.044Z,0.59
2022-12-03T06:24:45.481Z,0.49
2022-12-03T06:28:49.111Z,0.48
2022-12-03T06:32:51.259Z,0.47
2022-12-03T06:36:54.484Z,0.55
2022-12-03T06:40:56.731Z,0.55
2022-12-03T06:44:58.856Z,0.59
2022-12-03T06:49:01.021Z,0.49
2022-12-03T06:53:03.122Z,0.43
2022-12-03T06:57:05.288Z,0.41
2022-12-03T07:01:07.503Z,0.48
2022-12-03T07:05:09.768Z,0.47
2022-12-03T07:09:11.911Z,0.41
2022-12-03T07:13:13.993Z,0.43
2022-12-03T07:17:16.076Z,0.38
2022-12-03T07:21:18.239Z,0.45
2022-12-03T07:25:23.496Z,0.42
2022-12-03T07:29:26.001Z,0.44
2022-12-03T07:33:28.121Z,0.49
2022-12-03T07:37:32.561Z,0.52
2022-12-03T07:41:34.729Z,1.04
2022-12-03T07:45:36.817Z,1.31
2022-12-03T07:49:38.904Z,1.11
2022-12-03T07:53:40.992Z,0.98
2022-12-03T07:57:43.226Z,0.84
2022-12-03T08:01:45.985Z,0.78
2022-12-03T08:05:48.303Z,0.70
2022-12-03T08:09:50.600Z,0.70
2022-12-03T08:13:52.717Z,0.61
2022-12-03T08:17:58.633Z,0.66
2022-12-03T08:22:01.746Z,0.65
2022-12-03T08:26:12.847Z,0.64
2022-12-03T08:30:16.932Z,0.67
2022-12-03T08:34:26.131Z,0.79
2022-12-03T08:38:29.698Z,0.88
2022-12-03T08:42:42.894Z,0.85
2022-12-03T08:46:45.285Z,0.72
2022-12-03T08:50:47.710Z,0.73
2022-12-03T08:54:55.057Z,0.79
2022-12-03T08:59:14.481Z,0.91
2022-12-03T09:03:19.075Z,0.96
2022-12-03T09:07:21.136Z,0.94
2022-12-03T09:11:23.277Z,0.97
2022-12-03T09:15:25.501Z,0.91
2022-12-03T09:19:30.864Z,0.91
2022-12-03T09:23:32.948Z,0.88
2022-12-03T09:27:35.217Z,0.90
2022-12-03T09:31:38.222Z,0.91
2022-12-03T09:35:40.475Z,0.92
2022-12-03T09:39:42.569Z,0.94
2022-12-03T09:48:07.283Z,0.91
2022-12-03T09:52:20.701Z,0.93
2022-12-03T09:56:23.516Z,1.00
2022-12-03T10:00:29.130Z,1.08
2022-12-03T10:04:31.580Z,1.23
2022-12-03T10:08:33.894Z,1.24
2022-12-03T10:12:36.042Z,1.31
2022-12-03T10:16:40.251Z,1.39
2022-12-03T10:20:42.571Z,1.43
2022-12-03T10:24:45.143Z,1.38
2022-12-03T10:28:47.726Z,1.42
2022-12-03T10:32:51.214Z,1.42
2022-12-03T10:37:09.737Z,1.51
2022-12-03T10:41:28.441Z,1.56
2022-12-03T10:45:30.591Z,1.44
2022-12-03T10:49:33.180Z,1.48
2022-12-03T10:53:38.583Z,1.50
2022-12-03T10:57:45.618Z,1.43
2022-12-03T11:01:49.576Z,1.21
2022-12-03T11:05:52.689Z,1.17
2022-12-03T11:10:16.070Z,1.25
2022-12-03T11:14:56.524Z,1.17
2022-12-03T11:19:01.237Z,1.12
2022-12-03T11:23:03.313Z,1.34
2022-12-03T11:27:06.862Z,1.49
2022-12-03T11:31:29.081Z,1.63
2022-12-03T11:36:02.918Z,1.72
2022-12-03T11:40:17.171Z,1.57
2022-12-03T11:44:38.379Z,1.55
2022-12-03T11:48:44.954Z,1.58
2022-12-03T11:53:14.864Z,1.50
2022-12-03T11:57:27.705Z,1.43
2022-12-03T12:01:40.740Z,1.39
2022-12-03T12:05:42.890Z,1.31
2022-12-03T12:09:54.700Z,1.34
2022-12-03T12:14:04.984Z,1.38
2022-12-03T12:18:39.951Z,1.39
2022-12-03T12:22:42.059Z,1.34
2022-12-03T12:26:51.095Z,1.30
2022-12-03T12:30:53.182Z,1.26
2022-12-03T12:35:05.397Z,1.24
2022-12-03T12:39:12.887Z,1.33
2022-12-03T12:43:24.433Z,1.32
2022-12-03T12:47:29.892Z,1.33
2022-12-03T12:51:32.077Z,1.26
2022-12-03T12:55:38.285Z,1.26
2022-12-03T12:59:40.604Z,1.26
2022-12-03T13:03:42.734Z,1.22
2022-12-03T13:07:45.624Z,1.17
2022-12-03T13:11:53.432Z,1.10
2022-12-03T13:16:03.676Z,1.05
2022-12-03T13:20:16.361Z,1.07
2022-12-03T13:24:30.089Z,1.11
2022-12-03T13:28:33.651Z,1.09
2022-12-03T13:32:41.230Z,1.05
2022-12-03T13:36:45.815Z,1.00
2022-12-03T13:40:58.900Z,0.97
2022-12-03T13:45:02.040Z,0.97
2022-12-03T13:49:12.675Z,0.91
2022-12-03T13:53:27.465Z,0.87
2022-12-03T13:57:29.549Z,0.83
2022-12-03T14:01:31.820Z,0.83
2022-12-03T14:05:33.997Z,0.81
2022-12-03T14:09:36.126Z,0.83
2022-12-03T14:13:38.971Z,0.75
2022-12-03T14:17:41.483Z,0.70
2022-12-03T14:21:43.662Z,0.73
2022-12-03T14:25:45.769Z,0.73
2022-12-03T14:29:47.907Z,0.71
2022-12-03T14:33:49.996Z,0.74
2022-12-03T14:37:52.121Z,0.71
2022-12-03T14:42:12.791Z,0.70
2022-12-03T14:46:14.922Z,0.66
2022-12-03T14:50:17.173Z,0.70
2022-12-03T14:54:19.286Z,0.69
2022-12-03T14:58:21.441Z,0.63
2022-12-03T15:02:23.650Z,0.60
2022-12-03T15:06:25.879Z,0.61
2022-12-03T15:10:28.157Z,0.60
2022-12-03T15:14:30.276Z,0.63
2022-12-03T15:18:34.479Z,0.66
2022-12-03T15:22:36.558Z,0.60
2022-12-03T15:26:38.672Z,0.65
2022-12-03T15:30:40.802Z,0.66
2022-12-03T15:34:42.998Z,0.71
2022-12-03T15:38:45.148Z,0.73
2022-12-03T15:42:47.413Z,0.74
2022-12-03T15:46:49.560Z,0.76
2022-12-03T15:50:51.612Z,0.74
2022-12-03T15:54:55.131Z,0.71
2022-12-03T15:58:58.150Z,0.68
2022-12-03T16:03:00.347Z,0.70
2022-12-03T16:07:03.411Z,0.77
2022-12-03T16:11:05.830Z,0.79
2022-12-03T16:15:08.216Z,0.80
2022-12-03T16:19:10.343Z,0.73
2022-12-03T16:23:12.544Z,0.74
2022-12-03T16:27:14.620Z,0.76
2022-12-03T16:31:18.920Z,0.76
2022-12-03T16:35:21.131Z,0.81
2022-12-03T16:39:23.340Z,0.86
2022-12-03T16:43:25.826Z,0.91
2022-12-03T16:47:33.444Z,0.91
2022-12-03T16:51:36.079Z,0.86
2022-12-03T16:55:38.275Z,0.82
2022-12-03T16:59:40.686Z,0.77
2022-12-03T17:03:42.806Z,0.76
2022-12-03T17:07:45.008Z,0.77
2022-12-03T17:11:47.127Z,0.76
2022-12-03T17:15:50.299Z,0.74
2022-12-03T17:19:53.556Z,0.69
2022-12-03T17:23:55.857Z,0.72
2022-12-03T17:27:57.930Z,0.70
2022-12-03T17:32:00.111Z,0.70
2022-12-03T17:36:02.313Z,0.68
2022-12-03T17:40:06.881Z,0.68
2022-12-03T17:44:11.384Z,0.67
2022-12-03T17:48:14.317Z,0.61
2022-12-03T17:52:16.465Z,0.59
2022-12-03T17:56:18.567Z,0.59
2022-12-03T18:00:20.786Z,0.57
2022-12-03T18:04:23.010Z,0.61
2022-12-03T18:08:25.249Z,0.58
2022-12-03T18:12:27.476Z,0.61
2022-12-03T18:16:29.680Z,0.65
2022-12-03T18:20:31.970Z,0.65
2022-12-03T18:24:34.343Z,0.61
2022-12-03T18:28:36.527Z,0.58
2022-12-03T18:32:38.683Z,0.56
2022-12-03T18:36:41.181Z,0.60
2022-12-03T18:40:45.305Z,0.63
2022-12-03T18:44:49.938Z,0.59
2022-12-03T18:48:52.444Z,0.60
2022-12-03T18:52:54.575Z,0.58
2022-12-03T18:56:56.689Z,0.57
2022-12-03T19:00:58.839Z,0.56
2022-12-03T19:05:01.046Z,0.64
2022-12-03T19:09:03.240Z,0.67
2022-12-03T19:13:05.395Z,0.65
2022-12-03T19:17:09.420Z,0.65
2022-12-03T19:21:14.786Z,0.68
2022-12-03T19:25:16.936Z,0.65
2022-12-03T19:29:19.012Z,0.63
2022-12-03T19:33:25.232Z,0.61
2022-12-03T19:37:33.845Z,0.61
2022-12-03T19:41:35.956Z,0.63
2022-12-03T19:45:38.153Z,0.63
2022-12-03T19:49:40.322Z,0.62
2022-12-03T19:53:42.881Z,0.69
2022-12-03T19:57:45.712Z,0.71
2022-12-03T20:01:47.867Z,0.73
2022-12-03T20:05:50.502Z,0.71
2022-12-03T20:09:53.193Z,0.68
2022-12-03T20:13:58.181Z,0.72
2022-12-03T20:18:00.298Z,0.72
2022-12-03T20:22:03.142Z,0.73
2022-12-03T20:26:10.716Z,0.72
2022-12-03T20:30:13.037Z,0.72
2022-12-03T20:34:15.172Z,0.73
2022-12-03T20:38:17.242Z,0.75
2022-12-03T20:42:19.340Z,0.73
2022-12-03T20:46:26.444Z,0.77
2022-12-03T20:50:28.680Z,0.81
2022-12-03T20:54:30.880Z,0.81
2022-12-03T20:58:33.861Z,0.88
2022-12-03T21:02:37.445Z,0.87
2022-12-03T21:06:42.247Z,0.89
2022-12-03T21:10:47.221Z,0.88
2022-12-03T21:14:49.319Z,0.94
2022-12-03T21:18:51.978Z,0.93
2022-12-03T21:22:54.092Z,0.97
2022-12-03T21:26:56.296Z,1.01
2022-12-03T21:31:07.708Z,0.98
2022-12-03T21:35:10.219Z,1.02
2022-12-03T21:39:12.482Z,1.03
2022-12-03T21:43:15.014Z,1.00
2022-12-03T21:47:17.309Z,0.97
2022-12-03T21:51:19.865Z,0.94
2022-12-03T21:55:21.997Z,0.95
2022-12-03T21:59:24.092Z,0.91
2022-12-03T22:03:26.712Z,0.93
2022-12-03T22:07:28.872Z,0.92
2022-12-03T22:11:31.139Z,0.93
2022-12-03T22:15:33.278Z,0.93
2022-12-03T22:19:35.354Z,0.96
2022-12-03T22:23:37.964Z,0.97
2022-12-03T22:27:40.121Z,0.99
2022-12-03T22:31:42.233Z,0.95
2022-12-03T22:35:44.309Z,0.92
2022-12-03T22:39:46.368Z,0.88
2022-12-03T22:43:49.596Z,0.90
2022-12-03T22:47:51.673Z,0.95
2022-12-03T22:51:53.824Z,0.97
2022-12-03T22:55:57.915Z,0.94
2022-12-03T23:00:00.071Z,0.94
2022-12-03T23:04:03.539Z,0.94
2022-12-03T23:08:12.493Z,0.95
2022-12-03T23:12:14.876Z,0.99
2022-12-03T23:16:23.283Z,0.93
2022-12-03T23:20:26.023Z,0.91
2022-12-03T23:24:28.661Z,0.83
2022-12-03T23:28:32.981Z,0.87
2022-12-03T23:32:36.119Z,0.79
2022-12-03T23:36:38.254Z,0.83
2022-12-03T23:40:46.417Z,0.83
2022-12-03T23:44:50.100Z,0.79
2022-12-03T23:48:52.413Z,0.65
2022-12-03T23:52:54.583Z,0.58
2022-12-03T23:56:56.685Z,0.58
